Terminal Aerodrome Forecast
Issued by NWS Brownsville, TX

Home | Current Version | Previous Version | Text Only | Print | Product List | Glossary On
Versions: 1 2 3 4 5 6 7 8 9 10 11 12 13 14 15 16 17 18 19 20 21 22 23 24 25 26 27 28
000
FTUS44 KBRO 202300
TAFMFE
TAF
KMFE 202330Z 2100/2124 03010KT P6SM OVC070
     FM210200 05006KT P6SM FEW050
     FM211100 04006KT P6SM BKN040
     FM211700 07012KT P6SM VCSH SCT040 BKN060=

USA.gov is the U.S. government's official web portal to all federal, state and local government web resources and services.